createdAt,value
2016-12-18T16:07:44.620Z,37
2016-12-18T16:08:06.986Z,37
2016-12-18T16:10:08.555Z,37
2016-12-18T16:12:06.364Z,36
2016-12-18T16:14:18.695Z,36
2016-12-18T16:16:17.983Z,36
2016-12-18T16:18:07.427Z,35
2016-12-18T16:20:07.311Z,35
2016-12-18T16:22:36.122Z,35
2016-12-18T16:24:07.551Z,35
2016-12-18T16:26:07.279Z,35
2016-12-18T16:28:14.176Z,35
2016-12-18T16:30:09.843Z,34
2016-12-18T16:32:06.568Z,34
2016-12-18T16:34:12.449Z,33
2016-12-18T16:36:07.032Z,32
2016-12-18T16:38:06.799Z,33
2016-12-18T16:40:07.373Z,34
2016-12-18T16:42:07.002Z,33
2016-12-18T16:44:07.072Z,33
2016-12-18T16:46:12.008Z,33
2016-12-18T16:48:06.820Z,33
2016-12-18T16:50:09.124Z,33
2016-12-18T16:52:06.769Z,33
2016-12-18T16:54:07.464Z,33
2016-12-18T16:56:10.601Z,33
2016-12-18T16:58:07.195Z,33
2016-12-18T17:00:09.376Z,33
2016-12-18T17:02:07.071Z,33
2016-12-18T17:04:06.951Z,33
2016-12-18T17:06:09.107Z,33
2016-12-18T17:14:06.578Z,33
2016-12-18T17:16:07.325Z,33
2016-12-18T17:18:07.324Z,32
2016-12-18T17:20:08.623Z,33
2016-12-18T17:22:07.510Z,32
2016-12-18T17:24:06.763Z,32
2016-12-18T17:26:09.122Z,32
2016-12-18T17:32:06.813Z,32
2016-12-18T17:33:06.496Z,32
2016-12-18T17:34:14.163Z,32
2016-12-18T17:36:06.843Z,32
2016-12-18T17:38:06.656Z,32
2016-12-18T17:40:14.296Z,32
2016-12-18T17:42:18.038Z,32
2016-12-18T17:44:07.088Z,32
2016-12-18T17:46:14.478Z,32
2016-12-18T17:48:07.247Z,32
2016-12-18T17:50:07.053Z,32
2016-12-18T17:52:06.807Z,32
2016-12-18T17:54:11.774Z,32
2016-12-18T17:56:07.188Z,32
2016-12-18T17:59:23.005Z,32
2016-12-18T18:00:09.314Z,32
2016-12-18T18:02:08.563Z,32
2016-12-18T18:04:07.694Z,32
2016-12-18T18:07:02.819Z,32
2016-12-18T18:09:11.120Z,32
2016-12-18T18:10:12.708Z,32
2016-12-18T18:10:30.037Z,32
2016-12-18T18:10:54.689Z,32
2016-12-18T18:12:08.966Z,32
2016-12-18T18:14:06.657Z,32
2016-12-18T18:15:39.748Z,32
2016-12-18T18:16:09.921Z,32
2016-12-18T18:18:06.940Z,32
2016-12-18T18:19:25.028Z,32
2016-12-18T18:19:55.172Z,31
2016-12-18T18:20:09.233Z,32
2016-12-18T18:22:07.117Z,32
2016-12-18T18:24:07.770Z,32
2016-12-18T18:26:09.101Z,32
2016-12-18T18:28:06.774Z,31
2016-12-18T18:30:11.544Z,32
2016-12-18T18:32:07.446Z,31
2016-12-18T18:34:07.370Z,32
2016-12-18T18:36:14.609Z,32
2016-12-18T18:38:07.366Z,32
2016-12-18T18:40:07.213Z,32
2016-12-18T18:42:07.013Z,32
2016-12-18T18:44:07.070Z,32
2016-12-18T18:46:06.813Z,32
2016-12-18T18:48:09.347Z,32
2016-12-18T18:50:07.181Z,32
2016-12-18T18:52:09.403Z,31
2016-12-18T18:54:07.386Z,32
2016-12-18T18:56:07.955Z,32
2016-12-18T18:58:11.635Z,32
2016-12-18T19:00:07.326Z,32
2016-12-18T19:02:07.166Z,32
2016-12-18T19:04:06.888Z,32
2016-12-18T19:06:11.709Z,32
2016-12-18T19:08:11.675Z,32
2016-12-18T19:10:07.338Z,31
2016-12-18T19:12:07.146Z,32
2016-12-18T19:14:06.907Z,31
2016-12-18T19:16:06.650Z,32
2016-12-18T19:18:07.582Z,32
2016-12-18T19:20:07.306Z,32
2016-12-18T19:22:12.014Z,31
2016-12-18T19:24:06.765Z,31
2016-12-18T19:26:06.510Z,31
2016-12-18T19:28:07.379Z,31
2016-12-18T19:30:12.297Z,31
2016-12-18T19:32:12.026Z,31
2016-12-18T19:34:14.377Z,31
2016-12-18T19:36:09.750Z,31
2016-12-18T19:38:07.471Z,31
2016-12-18T19:40:07.299Z,31
2016-12-18T19:42:09.714Z,31
2016-12-18T19:44:06.512Z,31
2016-12-18T19:46:07.228Z,31
2016-12-18T19:48:06.961Z,31
2016-12-18T19:50:09.331Z,31
2016-12-18T19:52:07.064Z,31
2016-12-18T19:54:06.817Z,31
2016-12-18T19:56:11.687Z,31
2016-12-18T19:58:07.425Z,31
2016-12-18T20:00:07.093Z,31
2016-12-18T20:02:09.951Z,31
2016-12-18T20:04:17.777Z,31
2016-12-18T20:06:06.451Z,31
2016-12-18T20:08:07.180Z,31
2016-12-18T20:10:06.889Z,31
2016-12-18T20:12:09.087Z,31
2016-12-18T20:14:06.935Z,31
2016-12-18T20:16:09.162Z,31
2016-12-18T20:18:08.381Z,31
2016-12-18T20:20:09.817Z,31
2016-12-18T20:22:07.780Z,31
2016-12-18T20:24:06.734Z,31
2016-12-18T20:26:09.090Z,31
2016-12-18T20:28:11.868Z,31
2016-12-18T20:30:06.571Z,31
2016-12-18T20:32:17.429Z,31
2016-12-18T20:34:07.277Z,31
2016-12-18T20:36:09.546Z,31
2016-12-18T20:38:15.165Z,31
2016-12-18T20:40:14.441Z,31
2016-12-18T20:42:07.782Z,31
2016-12-18T20:44:06.691Z,31
2016-12-18T20:46:09.940Z,31
2016-12-18T20:48:06.640Z,31
2016-12-18T20:50:12.379Z,31
2016-12-18T20:52:09.669Z,31
2016-12-18T20:54:07.403Z,31
2016-12-18T20:56:12.342Z,31
2016-12-18T20:58:12.071Z,31
2016-12-18T21:00:06.734Z,31
2016-12-18T21:02:06.799Z,31
2016-12-18T21:04:06.732Z,31
2016-12-18T21:06:06.628Z,31
2016-12-18T21:08:07.310Z,31
2016-12-18T21:10:07.231Z,31
2016-12-18T21:12:07.325Z,31
2016-12-18T21:14:07.131Z,31
2016-12-18T21:16:11.911Z,31
2016-12-18T21:18:09.458Z,31
2016-12-18T21:20:13.182Z,31
2016-12-18T21:22:09.505Z,31
2016-12-18T21:24:06.466Z,31
2016-12-18T21:26:12.517Z,31
2016-12-18T21:28:07.302Z,31
2016-12-18T21:30:14.571Z,31
2016-12-18T21:32:07.299Z,31
2016-12-18T21:34:12.076Z,31
2016-12-18T21:36:09.449Z,31
2016-12-18T21:38:08.245Z,31
2016-12-18T21:40:12.084Z,31
2016-12-18T21:42:06.760Z,31
2016-12-18T21:44:06.767Z,31
2016-12-18T21:46:14.752Z,31
2016-12-18T21:48:09.127Z,31
2016-12-18T21:50:08.005Z,31
2016-12-18T21:52:11.732Z,31
2016-12-18T21:54:09.045Z,31
2016-12-18T21:56:06.815Z,31
2016-12-18T21:58:26.782Z,31
2016-12-18T22:00:10.023Z,31
2016-12-18T22:02:07.793Z,31
2016-12-18T22:04:07.521Z,31
2016-12-18T22:06:12.468Z,31
2016-12-18T22:08:07.333Z,31
2016-12-18T22:10:07.376Z,31
2016-12-18T22:12:07.144Z,31
2016-12-18T22:14:07.041Z,31
2016-12-18T22:16:06.742Z,31
2016-12-18T22:18:09.175Z,31
2016-12-18T22:20:06.872Z,31
2016-12-18T22:22:06.530Z,30
2016-12-18T22:24:10.142Z,31
2016-12-18T22:26:09.482Z,31
2016-12-18T22:28:07.231Z,31
2016-12-18T22:30:09.480Z,31
2016-12-18T22:32:08.150Z,31
2016-12-18T22:34:07.773Z,31
2016-12-18T22:36:06.418Z,31
2016-12-18T22:38:07.282Z,31
2016-12-18T22:40:06.962Z,31
2016-12-18T22:42:11.745Z,31
2016-12-18T22:44:06.676Z,31
2016-12-18T22:46:07.426Z,31
2016-12-18T22:48:07.153Z,31
2016-12-18T22:50:09.534Z,31
2016-12-18T22:52:07.299Z,31
2016-12-18T22:54:06.978Z,31
2016-12-18T22:56:14.275Z,31
2016-12-18T22:58:07.145Z,31
2016-12-18T23:00:14.445Z,31
2016-12-18T23:02:12.433Z,31
2016-12-18T23:04:07.351Z,31
2016-12-18T23:06:09.551Z,31
2016-12-18T23:08:12.403Z,31
2016-12-18T23:10:07.116Z,31
2016-12-18T23:12:07.080Z,31
2016-12-18T23:14:06.916Z,31
2016-12-18T23:16:06.604Z,31
2016-12-18T23:18:06.474Z,31
2016-12-18T23:20:09.844Z,31
2016-12-18T23:22:06.804Z,31
2016-12-18T23:24:06.506Z,31
2016-12-18T23:26:09.002Z,31
2016-12-18T23:28:07.467Z,31
2016-12-18T23:30:07.548Z,31
2016-12-18T23:32:07.615Z,31
2016-12-18T23:34:09.865Z,31
2016-12-18T23:36:06.590Z,31
2016-12-18T23:38:09.889Z,31
2016-12-18T23:40:16.732Z,31
2016-12-18T23:42:11.463Z,31
2016-12-18T23:44:07.150Z,31
2016-12-18T23:46:07.066Z,31
2016-12-18T23:48:06.763Z,31
2016-12-18T23:50:06.795Z,31
2016-12-18T23:52:06.495Z,31
2016-12-18T23:54:08.185Z,31
2016-12-18T23:56:12.267Z,31
2016-12-18T23:58:06.937Z,31
